N0RUX-13 Weather Reports


Display with metric or nautical units.
time (UTC)temp
F
wind
direction
speed
MPH
gust
MPH
rain 1hr
in
rain 24hr
in
rain mn
in
humidity
%
barometer
mb
20210921055801 48 99 1.0 1.0 0.00 0.01 0.01 75 1023.9
20210921054801 48 98 0.0 1.0 0.00 0.01 0.01 77 1023.7
20210921053801 48 105 0.0 2.0 0.00 0.01 0.01 77 1023.5
20210921052801 48 84 1.0 2.0 0.00 0.01 0.01 77 1023.4
20210921051801 48 88 0.0 2.0 0.00 0.01 0.01 76 1023.1
20210921050801 47 108 0.0 1.0 0.00 0.01 0.01 77 1023.0
20210921045801 48 89 0.0 1.0 0.00 0.01 0.01 78 1022.8
20210921044801 48 99 0.0 1.0 0.00 0.01 0.01 77 1022.6
20210921043801 48 100 0.0 1.0 0.00 0.01 0.01 77 1022.4
20210921042801 48 102 0.0 0.0 0.00 0.01 0.01 77 1022.2
20210921040801 49 107 0.0 0.0 0.01 0.01 0.01 77 1022.1
20210921035801 49 98 0.0 4.0 0.01 0.01 0.01 77 1021.8
20210921034801 49 72 0.0 1.0 0.01 0.01 0.01 79 1021.9
20210921033803 49 343 0.0 1.0 0.01 0.01 0.01 77 1021.8
20210921032803 50 6 0.0 1.0 0.01 0.01 0.01 75 1021.7
20210921031803 50 329 0.0 1.0 0.01 0.01 0.01 73 1021.5
20210921030803 50 11 0.0 1.0 0.00 0.00 0.00 71 1021.3
20210921025803 51 328 0.0 3.0 0.00 0.00 0.00 69 1020.9
20210921024803 51 298 3.0 2.0 0.00 0.00 0.00 69 1020.3
20210921023803 52 338 0.0 3.0 0.00 0.00 0.00 66 1019.6
20210921022803 53 104 1.0 5.0 0.00 0.00 0.00 61 1019.2
20210921020803 55 56 6.0 16.0 0.00 0.00 0.00 52 1017.9
20210921015803 56 70 9.0 9.0 0.00 0.00 0.00 48 1017.4
20210921014803 57 84 2.0 18.0 0.00 0.00 0.00 46 1016.6
20210921013802 58 86 9.0 15.0 0.00 0.00 0.00 43 1016.1
20210921012802 60 125 7.0 17.0 0.00 0.00 0.00 38 1015.6
20210921011802 60 105 5.0 10.0 0.00 0.00 0.00 29 1015.0
20210921010802 61 72 4.0 8.0 0.00 0.00 0.00 29 1014.5
20210921005802 61 131 3.0 10.0 0.00 0.00 0.00 29 1014.5
20210921004802 62 108 4.0 14.0 0.00 0.00 0.00 28 1014.2
20210921003802 62 146 7.0 12.0 0.00 0.00 0.00 28 1014.0
20210921002802 63 186 8.0 12.0 0.00 0.00 0.00 27 1013.7
20210921001802 63 117 5.0 9.0 0.00 0.00 0.00 26 1013.5
20210921000802 63 149 4.0 12.0 0.00 0.00 0.00 28 1013.4
20210920235802 63 124 6.0 11.0 0.00 0.00 0.00 29 1013.2
20210920234802 63 136 7.0 12.0 0.00 0.00 0.00 29 1013.0
20210920233802 63 81 5.0 11.0 0.00 0.00 0.00 29 1012.8
20210920232802 63 143 4.0 13.0 0.00 0.00 0.00 29 1012.7
20210920231802 63 124 4.0 7.0 0.00 0.00 0.00 29 1012.6
20210920230802 63 96 6.0 10.0 0.00 0.00 0.00 29 1012.5
20210920225802 64 79 5.0 12.0 0.00 0.00 0.00 29 1012.1
20210920224802 64 122 5.0 9.0 0.00 0.00 0.00 28 1012.0
20210920223802 64 97 3.0 7.0 0.00 0.00 0.00 29 1011.9
20210920222802 64 139 3.0 7.0 0.00 0.00 0.00 28 1011.8
20210920221802 64 131 3.0 9.0 0.00 0.00 0.00 28 1011.7
20210920220802 64 100 3.0 5.0 0.00 0.00 0.00 28 1011.6
20210920215802 65 136 4.0 9.0 0.00 0.00 0.00 27 1011.4
20210920214802 66 137 5.0 6.0 0.00 0.00 0.00 26 1011.3
20210920213802 66 122 4.0 7.0 0.00 0.00 0.00 25 1011.3
20210920212802 67 79 1.0 12.0 0.00 0.00 0.00 25 1011.1
20210920211801 67 128 6.0 9.0 0.00 0.00 0.00 27 1011.1
20210920210802 66 142 5.0 12.0 0.00 0.00 0.00 27 1010.9
20210920205801 68 168 3.0 11.0 0.00 0.00 0.00 27 1010.9
20210920204802 67 117 4.0 7.0 0.00 0.00 0.00 26 1010.8
20210920203801 66 44 1.0 7.0 0.00 0.00 0.00 29 1011.0
20210920202802 66 86 6.0 10.0 0.00 0.00 0.00 28 1011.2
20210920201802 66 122 0.0 9.0 0.00 0.00 0.00 30 1011.2
20210920200801 66 83 3.0 11.0 0.00 0.00 0.00 27 1011.2
20210920195802 66 103 1.0 7.0 0.00 0.00 0.00 28 1011.2
20210920194801 65 104 3.0 12.0 0.00 0.00 0.00 27 1011.1
20210920192801 66 53 1.0 6.0 0.00 0.00 0.00 31 1011.1
20210920191801 65 51 2.0 7.0 0.00 0.00 0.00 29 1011.3
20210920190801 65 7 5.0 10.0 0.00 0.00 0.00 30 1011.3
20210920185802 65 94 6.0 9.0 0.00 0.00 0.00 29 1011.2
20210920184801 66 346 1.0 8.0 0.00 0.00 0.00 29 1011.2
20210920183801 65 77 2.0 6.0 0.00 0.00 0.00 30 1011.2
20210920181801 67 59 2.0 5.0 0.00 0.00 0.00 31 1011.1
20210920180801 66 50 1.0 7.0 0.00 0.00 0.00 30 1011.0
20210920175801 66 22 0.0 11.0 0.00 0.00 0.00 30 1010.9
20210920174801 65 77 5.0 5.0 0.00 0.00 0.00 30 1010.9
20210920173801 64 331 3.0 4.0 0.00 0.00 0.00 29 1010.9
20210920172801 64 314 2.0 8.0 0.00 0.00 0.00 31 1010.9
20210920171803 64 44 1.0 12.0 0.00 0.00 0.00 28 1010.9
20210920170803 65 250 3.0 5.0 0.00 0.00 0.00 27 1010.9
20210920165803 64 292 2.0 11.0 0.00 0.00 0.00 29 1011.0
20210920164803 63 254 2.0 14.0 0.00 0.00 0.00 28 1010.9
20210920163803 63 275 3.0 12.0 0.00 0.00 0.00 27 1010.9
20210920162802 63 131 2.0 14.0 0.00 0.00 0.00 28 1010.7
20210920161803 62 25 10.0 10.0 0.00 0.00 0.00 31 1010.5
20210920160802 62 328 5.0 9.0 0.00 0.00 0.00 31 1010.3
20210920155802 62 250 3.0 11.0 0.00 0.00 0.00 31 1010.2
20210920154802 62 238 2.0 6.0 0.00 0.00 0.00 31 1010.0
20210920153802 61 122 3.0 8.0 0.00 0.00 0.00 34 1009.9
20210920152802 60 356 2.0 7.0 0.00 0.00 0.00 36 1009.8
20210920151802 58 171 1.0 6.0 0.00 0.00 0.00 45 1010.1
20210920150802 57 122 2.0 5.0 0.00 0.00 0.00 46 1009.9
20210920145802 58 79 2.0 7.0 0.00 0.00 0.00 49 1009.8
20210920144802 57 196 2.0 5.0 0.00 0.00 0.00 49 1009.5
20210920143802 56 105 3.0 5.0 0.00 0.00 0.00 53 1009.2
20210920142802 56 118 1.0 6.0 0.00 0.00 0.00 53 1009.3
20210920141802 55 86 4.0 4.0 0.00 0.00 0.00 55 1009.2
20210920140803 55 129 2.0 2.0 0.00 0.00 0.00 56 1009.2
20210920135802 54 93 3.0 3.0 0.00 0.00 0.00 56 1008.8
20210920134802 52 67 0.0 5.0 0.00 0.00 0.00 61 1008.5
20210920133802 52 198 1.0 4.0 0.00 0.00 0.00 62 1008.2
20210920131802 51 75 0.0 3.0 0.00 0.00 0.00 63 1007.4
20210920130802 50 75 1.0 3.0 0.00 0.00 0.00 65 1007.1
20210920124802 53 20 1.0 2.0 0.00 0.00 0.00 55 1006.6
20210920123802 52 329 2.0 2.0 0.00 0.00 0.00 52 1006.4
20210920122802 52 13 1.0 2.0 0.00 0.00 0.00 51 1005.9
20210920121802 54 42 0.0 0.0 0.00 0.00 0.00 50 1005.8
20210920120802 54 221 0.0 4.0 0.00 0.00 0.00 48 1005.5
20210920115802 54 195 0.0 4.0 0.00 0.00 0.00 49 1005.5
20210920114802 55 202 0.0 2.0 0.00 0.00 0.00 48 1005.2
20210920113802 55 232 2.0 4.0 0.00 0.00 0.00 48 1005.0
20210920112802 56 216 1.0 2.0 0.00 0.00 0.00 48 1004.6
20210920111801 57 210 0.0 4.0 0.00 0.00 0.00 47 1004.8
20210920110802 57 243 1.0 6.0 0.00 0.00 0.00 45 1005.1
20210920105801 58 252 2.0 3.0 0.00 0.00 0.00 45 1004.7
20210920104801 58 29 2.0 3.0 0.00 0.00 0.00 45 1004.4
20210920103802 59 259 1.0 6.0 0.00 0.00 0.00 45 1003.7
20210920102801 59 236 8.0 8.0 0.00 0.00 0.00 45 1003.5
20210920101801 59 248 3.0 6.0 0.00 0.00 0.00 46 1003.7
20210920100801 59 235 2.0 7.0 0.00 0.00 0.00 49 1003.2
20210920095801 58 189 1.0 6.0 0.00 0.00 0.00 54 1003.1
20210920094801 58 226 1.0 5.0 0.00 0.00 0.00 54 1003.0
20210920093801 58 127 1.0 7.0 0.00 0.00 0.00 56 1003.0
20210920092801 58 122 3.0 6.0 0.00 0.00 0.00 55 1003.0
20210920091801 58 162 3.0 7.0 0.00 0.00 0.00 55 1003.1
20210920090801 58 154 3.0 6.0 0.00 0.00 0.00 56 1002.9
20210920085801 58 125 6.0 5.0 0.00 0.00 0.00 56 1003.2
20210920084801 58 130 3.0 9.0 0.00 0.00 0.00 56 1003.1
20210920083801 58 158 5.0 9.0 0.00 0.00 0.00 56 1002.6
20210920082802 58 136 6.0 11.0 0.00 0.00 0.00 57 1002.2
20210920081801 57 150 5.0 9.0 0.00 0.00 0.00 57 1002.2
20210920080801 57 163 3.0 10.0 0.00 0.00 0.00 59 1001.7
20210920075801 57 142 3.0 8.0 0.00 0.00 0.00 60 1001.8
20210920074801 56 131 1.0 3.0 0.00 0.00 0.00 60 1002.2
20210920073801 57 137 2.0 3.0 0.00 0.00 0.00 60 1001.3
20210920072801 58 205 0.0 2.0 0.00 0.00 0.00 59 1001.3
20210920071801 59 141 0.0 3.0 0.00 0.00 0.00 56 1000.8
20210920070801 59 105 0.0 4.0 0.00 0.00 0.00 56 1000.7
20210920065801 59 108 2.0 3.0 0.00 0.00 0.00 55 1000.7
20210920064801 60 95 2.0 6.0 0.00 0.00 0.00 55 1000.5
20210920063801 60 287 2.0 7.0 0.00 0.00 0.00 54 999.9
20210920062803 61 51 3.0 12.0 0.00 0.00 0.00 54 999.1
20210920060801 63 51 5.0 16.0 0.00 0.00 0.00 50 998.5